Decoded Metar for KFSE (FOSSTON in MN, USA) (IATA:FSE) | Meteo·Mobile Aviation Weather
aviador You're here:

KFSE Decoded Metar

FOSSTON in MN, USA
Report Time2019-07-24 04:38:00
UTC Time2019-07-24 04:46:27
Flight Rules vfr VFR
WindCalm
Visibility9999 m
Phenomena:N/A
Clouds:N/A
Expected CloudBase > 2,400 ft AGL from Temp-Dew spread
CeilingNone
Temp13°C (ISA +1)
Dew Point07°C (67% RH)
AAT12.3°C
QNH1022 hPa
Density Alt1,178 ft
Elevation1,276 ft
Report Wrong Elevation
Raw Report
KFSE 240438Z AUTO 00000KT 10SM CLR 13/07 A3017 RMK AO2=

Extra information for KFSE:More info

Metar Taf Metar & Taf Last 4 Metars F.Rules Stats Wind Profile Meteogram Temp Stats Airport Information Weather charts Add Link Nearby VenuesMetar ALERT Operation Metar Decoded Social comments

AIRNAV info for KFSE